Barbarossa — ZDFA4 — position and weather

sailwx.info

Track history (hours):
 
Tides and Currents Weather Stations Pressure Air Temp Water Temp Dewpoint Dewpoint Depression Visibility Wind Speed Wind Dir Waves Ship Positions

Barbarossa

Last reported at 2016-Feb-14 02:33 UTC. Time now 2016-Feb-14 17:01 UTC.
Position N 54°44' E 012°51'.

Length 83 m; draft 4.1 m.

Type: Cargo ship. MMSI: 236029000.

Date/timePositionNaut miles runAvg speedWind from/ knotsBaromVisibWave heightAir tempDewpointWater temp
2016-Feb-14 02:33N 54°44' E 012°51'1110.7
2016-Feb-14 01:33N 54°40' E 012°33'1110.9
2016-Feb-14 00:33N 54°33' E 012°19'1110.7
2016-Feb-13 23:33N 54°24' E 012°10'9 8.8
2016-Feb-13 22:33N 54°24' E 011°55'10 9.7
2016-Feb-13 21:33N 54°26' E 011°38'10 9.9
2016-Feb-13 20:33N 54°31' E 011°23'10 9.7
2016-Feb-13 19:33N 54°35' E 011°08'1010.0
2016-Feb-13 18:33N 54°34' E 010°51'1110.7
2016-Feb-13 17:33N 54°32' E 010°33'1110.9
2016-Feb-13 16:33N 54°27' E 010°16'7 7.0
2016-Feb-13 15:33N 54°22' E 010°09'1 0.7
2016-Feb-13 14:33N 54°22' E 010°07'4 4.4
2016-Feb-13 13:33N 54°21' E 009°60'5 4.9
2016-Feb-13 12:34N 54°22' E 009°52'7 7.1
2016-Feb-13 11:33N 54°18' E 009°42'16 8.1
2016-Feb-13 09:33N 54°08' E 009°20'8 8.2
2016-Feb-13 08:33N 53°60' E 009°17'8 7.8
2016-Feb-13 07:33N 53°54' E 009°09'2 1.9
2016-Feb-13 06:33N 53°53' E 009°06'7 7.1
2016-Feb-13 05:33N 53°51' E 008°55'8 7.5
2016-Feb-13 04:33N 53°53' E 008°43'7 6.9
2016-Feb-13 03:33N 53°58' E 008°34'10 9.9
2016-Feb-13 02:33N 53°59' E 008°18'1110.8
2016-Feb-13 01:32N 53°58' E 007°60'1110.8
2016-Feb-13 00:34N 53°55' E 007°42'1111.4
2016-Feb-12 23:33N 53°52' E 007°23'1211.7
2016-Feb-12 22:33N 53°50' E 007°04'1111.3
2016-Feb-12 21:33N 53°47' E 006°45'1111.1
2016-Feb-12 20:34N 53°45' E 006°27'1010.4
2016-Feb-12 19:33N 53°41' E 006°10'1010.0
2016-Feb-12 18:33N 53°38' E 005°54'10 9.8
2016-Feb-12 17:34N 53°35' E 005°39'9 9.2
2016-Feb-12 16:33N 53°33' E 005°24'9 8.9
2016-Feb-12 15:33N 53°30' E 005°10'38 9.0
2016-Feb-12 11:23N 53°03' E 004°25'9 9.7
2016-Feb-12 10:27N 52°55' E 004°19'910.1
2016-Feb-12 09:34N 52°47' E 004°11'1110.7
2016-Feb-12 08:33N 52°40' E 003°58'8612.2
2016-Feb-12 01:33N 51°36' E 002°25'1111.3
2016-Feb-12 00:33N 51°27' E 002°13'1010.4
2016-Feb-11 23:33N 51°18' E 002°07'9 9.0
2016-Feb-11 22:33N 51°11' E 001°57'8 8.5
2016-Feb-11 21:34N 51°06' E 001°47'8 7.9
2016-Feb-11 20:34N 51°00' E 001°38'9 8.4
2016-Feb-11 19:31N 50°53' E 001°29'273 8.8
2016-Feb-10 12:26N 50°30' W 005°41'8 8.6
2016-Feb-10 11:33N 50°35' W 005°32'9 9.3
2016-Feb-10 10:33N 50°41' W 005°21'93 3.3
2016-Feb-09 06:32N 51°24' W 003°09'4 0.1
2016-Feb-07 11:29N 51°28' W 003°09'0 0.0
2016-Feb-05 14:31N 51°28' W 003°09'90 8.2
2016-Feb-05 03:31N 50°43' W 005°14'1010.3
2016-Feb-05 02:33N 50°37' W 005°25'1010.5
2016-Feb-05 01:33N 50°29' W 005°37'  
Track history (hours):
 
Tides and Currents Weather Stations Pressure Air Temp Water Temp Dewpoint Dewpoint Depression Visibility Wind Speed Wind Dir Waves Ship Positions

Barbarossa

Last reported at 2016-Feb-14 02:33 UTC. Time now 2016-Feb-14 17:01 UTC.
Position N 54°44' E 012°51'.

Length 83 m; draft 4.1 m.

Type: Cargo ship. MMSI: 236029000.

Date/timePositionNaut miles runAvg speedWind from/ knotsBaromVisibWave heightAir tempDewpointWater temp
2016-Feb-14 02:33N 54°44' E 012°51'1110.7
2016-Feb-14 01:33N 54°40' E 012°33'1110.9
2016-Feb-14 00:33N 54°33' E 012°19'1110.7
2016-Feb-13 23:33N 54°24' E 012°10'9 8.8
2016-Feb-13 22:33N 54°24' E 011°55'10 9.7
2016-Feb-13 21:33N 54°26' E 011°38'10 9.9
2016-Feb-13 20:33N 54°31' E 011°23'10 9.7
2016-Feb-13 19:33N 54°35' E 011°08'1010.0
2016-Feb-13 18:33N 54°34' E 010°51'1110.7
2016-Feb-13 17:33N 54°32' E 010°33'1110.9
2016-Feb-13 16:33N 54°27' E 010°16'7 7.0
2016-Feb-13 15:33N 54°22' E 010°09'1 0.7
2016-Feb-13 14:33N 54°22' E 010°07'4 4.4
2016-Feb-13 13:33N 54°21' E 009°60'5 4.9
2016-Feb-13 12:34N 54°22' E 009°52'7 7.1
2016-Feb-13 11:33N 54°18' E 009°42'16 8.1
2016-Feb-13 09:33N 54°08' E 009°20'8 8.2
2016-Feb-13 08:33N 53°60' E 009°17'8 7.8
2016-Feb-13 07:33N 53°54' E 009°09'2 1.9
2016-Feb-13 06:33N 53°53' E 009°06'7 7.1
2016-Feb-13 05:33N 53°51' E 008°55'8 7.5
2016-Feb-13 04:33N 53°53' E 008°43'7 6.9
2016-Feb-13 03:33N 53°58' E 008°34'10 9.9
2016-Feb-13 02:33N 53°59' E 008°18'1110.8
2016-Feb-13 01:32N 53°58' E 007°60'1110.8
2016-Feb-13 00:34N 53°55' E 007°42'1111.4
2016-Feb-12 23:33N 53°52' E 007°23'1211.7
2016-Feb-12 22:33N 53°50' E 007°04'1111.3
2016-Feb-12 21:33N 53°47' E 006°45'1111.1
2016-Feb-12 20:34N 53°45' E 006°27'1010.4
2016-Feb-12 19:33N 53°41' E 006°10'1010.0
2016-Feb-12 18:33N 53°38' E 005°54'10 9.8
2016-Feb-12 17:34N 53°35' E 005°39'9 9.2
2016-Feb-12 16:33N 53°33' E 005°24'9 8.9
2016-Feb-12 15:33N 53°30' E 005°10'38 9.0
2016-Feb-12 11:23N 53°03' E 004°25'9 9.7
2016-Feb-12 10:27N 52°55' E 004°19'910.1
2016-Feb-12 09:34N 52°47' E 004°11'1110.7
2016-Feb-12 08:33N 52°40' E 003°58'8612.2
2016-Feb-12 01:33N 51°36' E 002°25'1111.3
2016-Feb-12 00:33N 51°27' E 002°13'1010.4
2016-Feb-11 23:33N 51°18' E 002°07'9 9.0
2016-Feb-11 22:33N 51°11' E 001°57'8 8.5
2016-Feb-11 21:34N 51°06' E 001°47'8 7.9
2016-Feb-11 20:34N 51°00' E 001°38'9 8.4
2016-Feb-11 19:31N 50°53' E 001°29'273 8.8
2016-Feb-10 12:26N 50°30' W 005°41'8 8.6
2016-Feb-10 11:33N 50°35' W 005°32'9 9.3
2016-Feb-10 10:33N 50°41' W 005°21'93 3.3
2016-Feb-09 06:32N 51°24' W 003°09'4 0.1
2016-Feb-07 11:29N 51°28' W 003°09'0 0.0
2016-Feb-05 14:31N 51°28' W 003°09'90 8.2
2016-Feb-05 03:31N 50°43' W 005°14'1010.3
2016-Feb-05 02:33N 50°37' W 005°25'1010.5
2016-Feb-05 01:33N 50°29' W 005°37'  

Dump ship's entire track history